sensor_id;sensor_type;location;lat;lon;timestamp;P1;durP1;ratioP1;P2;durP2;ratioP2
23743;SDS011;12052;53.478;10.182;2022-12-13T17:48:05;46.40;;;17.00;;
23743;SDS011;12052;53.478;10.182;2022-12-13T17:50:31;54.78;;;19.25;;
23743;SDS011;12052;53.478;10.182;2022-12-13T17:52:57;51.90;;;20.05;;
23743;SDS011;12052;53.478;10.182;2022-12-13T17:55:22;55.15;;;19.92;;
23743;SDS011;12052;53.478;10.182;2022-12-13T17:57:48;52.75;;;19.02;;
23743;SDS011;12052;53.478;10.182;2022-12-13T18:00:13;58.13;;;20.00;;
23743;SDS011;12052;53.478;10.182;2022-12-13T18:02:39;61.03;;;20.33;;
23743;SDS011;12052;53.478;10.182;2022-12-13T18:05:05;51.75;;;19.17;;
23743;SDS011;12052;53.478;10.182;2022-12-13T18:07:31;51.83;;;19.35;;
23743;SDS011;12052;53.478;10.182;2022-12-13T18:09:56;42.45;;;17.27;;
23743;SDS011;12052;53.478;10.182;2022-12-13T18:12:22;48.28;;;18.73;;
23743;SDS011;12052;53.478;10.182;2022-12-13T18:14:48;41.88;;;18.25;;
23743;SDS011;12052;53.478;10.182;2022-12-13T18:17:14;55.58;;;17.90;;
23743;SDS011;12052;53.478;10.182;2022-12-13T18:19:40;45.78;;;18.45;;
23743;SDS011;12052;53.478;10.182;2022-12-13T18:22:06;48.20;;;17.35;;
23743;SDS011;12052;53.478;10.182;2022-12-13T18:24:31;52.53;;;18.35;;
23743;SDS011;12052;53.478;10.182;2022-12-13T18:26:57;43.58;;;17.95;;
23743;SDS011;12052;53.478;10.182;2022-12-13T18:29:22;44.58;;;19.65;;
23743;SDS011;12052;53.478;10.182;2022-12-13T18:31:48;51.38;;;20.50;;
23743;SDS011;12052;53.478;10.182;2022-12-13T18:34:13;46.90;;;19.00;;
23743;SDS011;12052;53.478;10.182;2022-12-13T18:36:39;46.42;;;18.67;;
23743;SDS011;12052;53.478;10.182;2022-12-13T18:39:05;43.00;;;17.50;;
23743;SDS011;12052;53.478;10.182;2022-12-13T18:41:31;49.67;;;18.63;;
23743;SDS011;12052;53.478;10.182;2022-12-13T18:43:57;51.55;;;17.98;;
23743;SDS011;12052;53.478;10.182;2022-12-13T18:46:26;51.00;;;20.58;;
23743;SDS011;12052;53.478;10.182;2022-12-13T18:48:53;47.05;;;18.23;;
23743;SDS011;12052;53.478;10.182;2022-12-13T18:51:18;43.05;;;19.92;;
23743;SDS011;12052;53.478;10.182;2022-12-13T18:53:44;42.42;;;19.90;;
23743;SDS011;12052;53.478;10.182;2022-12-13T18:56:10;59.45;;;19.92;;
23743;SDS011;12052;53.478;10.182;2022-12-13T18:58:37;46.88;;;18.83;;
23743;SDS011;12052;53.478;10.182;2022-12-13T19:01:03;40.45;;;17.17;;
23743;SDS011;12052;53.478;10.182;2022-12-13T19:03:30;40.15;;;18.98;;
23743;SDS011;12052;53.478;10.182;2022-12-13T19:05:56;40.70;;;17.63;;
23743;SDS011;12052;53.478;10.182;2022-12-13T19:08:23;44.90;;;18.15;;
23743;SDS011;12052;53.478;10.182;2022-12-13T19:10:59;44.97;;;18.27;;
23743;SDS011;12052;53.478;10.182;2022-12-13T19:13:26;43.20;;;18.90;;
23743;SDS011;12052;53.478;10.182;2022-12-13T19:15:53;51.03;;;18.42;;
23743;SDS011;12052;53.478;10.182;2022-12-13T19:18:20;40.28;;;16.08;;
23743;SDS011;12052;53.478;10.182;2022-12-13T19:20:49;40.03;;;17.10;;
23743;SDS011;12052;53.478;10.182;2022-12-13T19:23:16;37.88;;;17.05;;
23743;SDS011;12052;53.478;10.182;2022-12-13T19:25:43;48.50;;;18.30;;
23743;SDS011;12052;53.478;10.182;2022-12-13T19:28:09;44.53;;;18.05;;
23743;SDS011;12052;53.478;10.182;2022-12-13T19:30:36;47.40;;;18.13;;
23743;SDS011;12052;53.478;10.182;2022-12-13T19:33:02;42.72;;;17.23;;
23743;SDS011;12052;53.478;10.182;2022-12-13T19:35:28;47.85;;;17.98;;
23743;SDS011;12052;53.478;10.182;2022-12-13T19:37:54;42.67;;;18.73;;
23743;SDS011;12052;53.478;10.182;2022-12-13T19:40:19;47.85;;;19.55;;
23743;SDS011;12052;53.478;10.182;2022-12-13T19:42:45;67.47;;;19.23;;
23743;SDS011;12052;53.478;10.182;2022-12-13T19:45:11;48.00;;;19.38;;
23743;SDS011;12052;53.478;10.182;2022-12-13T19:47:36;39.65;;;17.33;;
23743;SDS011;12052;53.478;10.182;2022-12-13T19:50:02;46.42;;;17.80;;
23743;SDS011;12052;53.478;10.182;2022-12-13T19:52:28;46.20;;;16.75;;
23743;SDS011;12052;53.478;10.182;2022-12-13T19:54:53;42.92;;;19.27;;
23743;SDS011;12052;53.478;10.182;2022-12-13T19:57:19;45.15;;;18.27;;
23743;SDS011;12052;53.478;10.182;2022-12-13T19:59:45;46.72;;;17.95;;
23743;SDS011;12052;53.478;10.182;2022-12-13T20:02:11;44.22;;;17.35;;
23743;SDS011;12052;53.478;10.182;2022-12-13T20:04:38;44.58;;;19.55;;
23743;SDS011;12052;53.478;10.182;2022-12-13T20:07:04;41.08;;;17.58;;
23743;SDS011;12052;53.478;10.182;2022-12-13T20:09:30;44.47;;;19.05;;
23743;SDS011;12052;53.478;10.182;2022-12-13T20:11:55;41.95;;;18.77;;
23743;SDS011;12052;53.478;10.182;2022-12-13T20:14:21;52.33;;;20.30;;
23743;SDS011;12052;53.478;10.182;2022-12-13T20:16:46;39.88;;;18.10;;
23743;SDS011;12052;53.478;10.182;2022-12-13T20:19:12;42.65;;;18.00;;
23743;SDS011;12052;53.478;10.182;2022-12-13T20:21:38;44.92;;;18.42;;
23743;SDS011;12052;53.478;10.182;2022-12-13T20:24:05;44.55;;;18.20;;
23743;SDS011;12052;53.478;10.182;2022-12-13T20:26:30;50.25;;;18.27;;
23743;SDS011;12052;53.478;10.182;2022-12-13T20:28:57;53.10;;;18.95;;
23743;SDS011;12052;53.478;10.182;2022-12-13T20:31:28;44.47;;;17.10;;
23743;SDS011;12052;53.478;10.182;2022-12-13T20:33:58;44.60;;;18.77;;
23743;SDS011;12052;53.478;10.182;2022-12-13T20:36:28;42.53;;;20.23;;
23743;SDS011;12052;53.478;10.182;2022-12-13T20:38:56;42.90;;;17.80;;
23743;SDS011;12052;53.478;10.182;2022-12-13T20:41:26;40.92;;;17.52;;
23743;SDS011;12052;53.478;10.182;2022-12-13T20:43:54;40.20;;;16.85;;
23743;SDS011;12052;53.478;10.182;2022-12-13T20:46:21;39.83;;;19.08;;
23743;SDS011;12052;53.478;10.182;2022-12-13T20:48:47;47.00;;;18.10;;
23743;SDS011;12052;53.478;10.182;2022-12-13T20:51:15;52.20;;;17.98;;
23743;SDS011;12052;53.478;10.182;2022-12-13T20:53:43;42.80;;;18.27;;
23743;SDS011;12052;53.478;10.182;2022-12-13T20:56:11;42.17;;;17.95;;
23743;SDS011;12052;53.478;10.182;2022-12-13T20:58:38;47.25;;;18.88;;
23743;SDS011;12052;53.478;10.182;2022-12-13T21:01:05;43.15;;;16.90;;
23743;SDS011;12052;53.478;10.182;2022-12-13T21:03:32;46.20;;;18.38;;
23743;SDS011;12052;53.478;10.182;2022-12-13T21:05:58;48.83;;;19.20;;
23743;SDS011;12052;53.478;10.182;2022-12-13T21:08:23;41.47;;;19.02;;
23743;SDS011;12052;53.478;10.182;2022-12-13T21:11:07;48.50;;;18.92;;
23743;SDS011;12052;53.478;10.182;2022-12-13T21:13:50;49.28;;;18.85;;
23743;SDS011;12052;53.478;10.182;2022-12-13T21:16:20;43.28;;;19.02;;
23743;SDS011;12052;53.478;10.182;2022-12-13T21:18:47;46.03;;;17.23;;
23743;SDS011;12052;53.478;10.182;2022-12-13T21:21:12;44.25;;;17.00;;
23743;SDS011;12052;53.478;10.182;2022-12-13T21:23:38;40.60;;;16.02;;
23743;SDS011;12052;53.478;10.182;2022-12-13T21:26:04;39.30;;;18.35;;
23743;SDS011;12052;53.478;10.182;2022-12-13T21:28:30;42.30;;;17.92;;
23743;SDS011;12052;53.478;10.182;2022-12-13T21:30:56;47.83;;;17.35;;
23743;SDS011;12052;53.478;10.182;2022-12-13T21:33:31;45.80;;;20.42;;
23743;SDS011;12052;53.478;10.182;2022-12-13T21:36:34;37.47;;;16.38;;
23743;SDS011;12052;53.478;10.182;2022-12-13T21:38:58;44.45;;;18.20;;
23743;SDS011;12052;53.478;10.182;2022-12-13T21:41:25;42.40;;;19.85;;
23743;SDS011;12052;53.478;10.182;2022-12-13T21:43:52;55.88;;;19.35;;
23743;SDS011;12052;53.478;10.182;2022-12-13T21:46:18;52.25;;;20.27;;
23743;SDS011;12052;53.478;10.182;2022-12-13T21:48:46;42.85;;;18.00;;
23743;SDS011;12052;53.478;10.182;2022-12-13T21:51:14;43.95;;;16.10;;
23743;SDS011;12052;53.478;10.182;2022-12-13T21:53:41;42.55;;;17.27;;
23743;SDS011;12052;53.478;10.182;2022-12-13T21:56:08;38.75;;;16.80;;
23743;SDS011;12052;53.478;10.182;2022-12-13T21:58:55;42.58;;;17.52;;
23743;SDS011;12052;53.478;10.182;2022-12-13T22:02:13;54.83;;;19.75;;
23743;SDS011;12052;53.478;10.182;2022-12-13T22:07:14;53.83;;;17.77;;
23743;SDS011;12052;53.478;10.182;2022-12-13T22:09:40;55.70;;;19.38;;
23743;SDS011;12052;53.478;10.182;2022-12-13T22:12:07;49.10;;;20.73;;
23743;SDS011;12052;53.478;10.182;2022-12-13T22:14:34;52.17;;;17.63;;
23743;SDS011;12052;53.478;10.182;2022-12-13T22:17:00;62.75;;;20.05;;
23743;SDS011;12052;53.478;10.182;2022-12-13T22:19:26;45.75;;;20.33;;
23743;SDS011;12052;53.478;10.182;2022-12-13T22:21:51;40.67;;;17.08;;
23743;SDS011;12052;53.478;10.182;2022-12-13T22:24:17;45.60;;;18.58;;
23743;SDS011;12052;53.478;10.182;2022-12-13T22:26:43;42.25;;;17.13;;
23743;SDS011;12052;53.478;10.182;2022-12-13T22:29:09;37.85;;;16.05;;
23743;SDS011;12052;53.478;10.182;2022-12-13T22:31:36;36.92;;;15.90;;
23743;SDS011;12052;53.478;10.182;2022-12-13T22:34:01;44.95;;;14.70;;
23743;SDS011;12052;53.478;10.182;2022-12-13T22:36:27;37.80;;;15.02;;
23743;SDS011;12052;53.478;10.182;2022-12-13T22:38:52;40.85;;;15.63;;
23743;SDS011;12052;53.478;10.182;2022-12-13T22:41:18;36.63;;;15.57;;
23743;SDS011;12052;53.478;10.182;2022-12-13T22:43:44;49.85;;;16.92;;
23743;SDS011;12052;53.478;10.182;2022-12-13T22:46:11;47.60;;;17.88;;
23743;SDS011;12052;53.478;10.182;2022-12-13T22:48:38;44.13;;;17.35;;
23743;SDS011;12052;53.478;10.182;2022-12-13T22:51:05;45.78;;;17.83;;
23743;SDS011;12052;53.478;10.182;2022-12-13T22:53:36;41.58;;;16.98;;
23743;SDS011;12052;53.478;10.182;2022-12-13T22:58:36;42.17;;;18.23;;
23743;SDS011;12052;53.478;10.182;2022-12-13T23:01:09;41.78;;;15.77;;
23743;SDS011;12052;53.478;10.182;2022-12-13T23:03:35;38.53;;;15.55;;
23743;SDS011;12052;53.478;10.182;2022-12-13T23:06:08;49.08;;;17.08;;
23743;SDS011;12052;53.478;10.182;2022-12-13T23:08:43;39.75;;;18.58;;
23743;SDS011;12052;53.478;10.182;2022-12-13T23:11:11;48.50;;;17.85;;
23743;SDS011;12052;53.478;10.182;2022-12-13T23:13:57;35.92;;;15.85;;
23743;SDS011;12052;53.478;10.182;2022-12-13T23:16:24;40.28;;;16.40;;
23743;SDS011;12052;53.478;10.182;2022-12-13T23:18:51;35.22;;;16.17;;
23743;SDS011;12052;53.478;10.182;2022-12-13T23:21:18;39.95;;;18.48;;
23743;SDS011;12052;53.478;10.182;2022-12-13T23:23:45;34.63;;;14.60;;
23743;SDS011;12052;53.478;10.182;2022-12-13T23:26:18;35.38;;;15.70;;
23743;SDS011;12052;53.478;10.182;2022-12-13T23:28:46;41.88;;;17.05;;
23743;SDS011;12052;53.478;10.182;2022-12-13T23:31:13;35.90;;;15.10;;
23743;SDS011;12052;53.478;10.182;2022-12-13T23:33:39;35.28;;;15.52;;
23743;SDS011;12052;53.478;10.182;2022-12-13T23:36:06;40.17;;;15.85;;
23743;SDS011;12052;53.478;10.182;2022-12-13T23:38:33;31.58;;;14.55;;
23743;SDS011;12052;53.478;10.182;2022-12-13T23:41:00;33.33;;;13.38;;
23743;SDS011;12052;53.478;10.182;2022-12-13T23:43:28;27.70;;;13.43;;
23743;SDS011;12052;53.478;10.182;2022-12-13T23:45:55;40.00;;;14.98;;
23743;SDS011;12052;53.478;10.182;2022-12-13T23:48:22;34.25;;;14.23;;
23743;SDS011;12052;53.478;10.182;2022-12-13T23:50:47;36.03;;;15.07;;
23743;SDS011;12052;53.478;10.182;2022-12-13T23:53:13;36.28;;;14.90;;
23743;SDS011;12052;53.478;10.182;2022-12-13T23:55:38;28.33;;;12.57;;
23743;SDS011;12052;53.478;10.182;2022-12-13T23:58:04;36.97;;;14.15;;
